Accueil
METAR-TAF:

METAR-TAF

Aéroports :

Aéroport international Diori Hamani

Niamey, Niger

latitude: 13-29N, longitude: 002-10E, altitude: 223 m

Observation

Le bulletin a été fait il y a 27 minutes, à 16:00 UTC
Vent 8 kt de est
Température 38°C
Humidité 9%
Pression 1008 hPa
Visibilité 10 km ou plus
pas de nuages en-dessous de 1500 mètres et pas de cumulonimbus.

METAR: DRRN 211600Z 09008KT CAVOK 38/M00 Q1008 NOSIG

Heure: 17:27 (16:27 UTC)

Prévision

Le bulletin a été fait il y a 5 heures et 27 minutes, à 11:00 UTC
Prévision valable du 21 à 12 UTC au 22 à 18 UTC
Vent 10 kt de nord-est
Visibilité: 8000 m
Temporairement
du 21 à 17 UTC au 21 à 20 UTC
Visibilité: 4000 m
poussière généralisée

TAF: DRRN 211100Z 2112/2218 04010KT 8000 NSC TEMPO 2117/2120 4000 DU

Observations et prévisions météorologiques de plus de 4000 aéroports (messages METAR et TAF).

Les stations disponibles sont représentées par des disques jaunes et rouges sur la carte.

Passer la souris dessus pour voir le nom de la station.

Cliquer dessus pour voir les observations et prévisions météorologiques.

Pour changer de carte: cliquez sur les boutons verts avec une croix noire pour zoomer, sur le bouton vert avec un tiret pour effectuer un zoom arrière, ou sur les flèches vertes pour les cartes adjacentes.


METAR-TAF: